Abadiania, Brazil
Current Conditions -  °F | °C
As of 11:00 PM on Friday 21 Nov 2014 (Local Time) from SBAN Reporting Station
Thunderstorm Thunderstorm  
Wind Chill: 66°   Ceiling: 3500
Heat Index: 66°   Visibility: 6mi
Dew Point: 63°   Wind: 0mph
Humidity: 88%   Direction: NA
Pressure: 30.09"   Gusts: NA
Location:  16.2°S, 48.71°W
Report Text: SBAN 220100Z 00000KT 9999 VCTS BKN035 FEW040CB 19/17 Q1019
Loading
Personal Weather Stations






























Interactive Weather Map New forecast layout! Learn more

10-Day Weather Forecast

Advertisements
Track Severe Weather on mobile